createdAt,value
2022-09-16T00:01:28.007Z,20.40
2022-09-16T00:03:29.576Z,17.67
2022-09-16T00:05:31.168Z,15.38
2022-09-16T00:07:32.695Z,15.43
2022-09-16T00:09:34.687Z,17.65
2022-09-16T00:11:36.691Z,16.65
2022-09-16T00:13:38.194Z,15.88
2022-09-16T00:15:47.559Z,18.13
2022-09-16T00:17:49.349Z,17.33
2022-09-16T00:19:51.022Z,17.60
2022-09-16T00:21:52.524Z,13.25
2022-09-16T00:23:55.192Z,13.38
2022-09-16T00:25:56.719Z,15.30
2022-09-16T00:27:58.249Z,10.50
2022-09-16T00:29:59.775Z,19.42
2022-09-16T00:32:01.364Z,11.88
2022-09-16T00:34:03.276Z,16.17
2022-09-16T00:36:16.452Z,9.13
2022-09-16T00:38:17.949Z,10.48
2022-09-16T00:40:19.561Z,11.88
2022-09-16T00:42:21.173Z,8.75
2022-09-16T00:44:55.005Z,8.80
2022-09-16T00:46:56.502Z,8.93
2022-09-16T00:49:02.013Z,11.50
2022-09-16T00:51:06.344Z,11.65
2022-09-16T00:53:09.854Z,9.32
2022-09-16T00:55:15.470Z,8.32
2022-09-16T00:57:17.091Z,8.82
2022-09-16T00:59:39.282Z,10.35
2022-09-16T01:01:43.216Z,10.60
2022-09-16T01:03:48.250Z,11.75
2022-09-16T01:05:50.222Z,10.00
2022-09-16T01:07:54.110Z,11.68
2022-09-16T01:09:56.238Z,11.60
2022-09-16T01:11:57.781Z,10.20
2022-09-16T01:14:19.747Z,15.68
2022-09-16T01:16:29.510Z,13.18
2022-09-16T01:18:42.044Z,8.85
2022-09-16T01:21:10.895Z,12.15
2022-09-16T01:23:18.578Z,13.80
2022-09-16T01:25:57.789Z,7.72
2022-09-16T01:28:58.463Z,11.45
2022-09-16T01:31:02.657Z,10.27
2022-09-16T01:33:18.012Z,13.07
2022-09-16T01:35:29.151Z,10.20
2022-09-16T01:37:59.927Z,7.63
2022-09-16T01:40:40.245Z,14.02
2022-09-16T01:43:04.194Z,11.25
2022-09-16T01:45:12.110Z,11.88
2022-09-16T01:47:34.480Z,8.00
2022-09-16T01:49:46.089Z,11.10
2022-09-16T01:52:08.831Z,8.50
2022-09-16T01:54:29.257Z,16.38
2022-09-16T01:56:37.710Z,13.93
2022-09-16T01:58:56.582Z,7.32
2022-09-16T02:01:03.546Z,8.85
2022-09-16T02:03:11.138Z,11.80
2022-09-16T02:05:18.116Z,14.25
2022-09-16T02:07:21.949Z,13.55
2022-09-16T02:09:27.700Z,13.07
2022-09-16T02:11:29.362Z,18.48
2022-09-16T02:13:34.079Z,18.85
2022-09-16T02:15:35.667Z,12.40
2022-09-16T02:17:41.344Z,16.17
2022-09-16T02:19:54.343Z,12.15
2022-09-16T02:21:56.860Z,12.32
2022-09-16T02:24:01.738Z,12.50
2022-09-16T02:26:06.219Z,17.83
2022-09-16T02:28:13.206Z,16.13
2022-09-16T02:30:18.563Z,11.63
2022-09-16T02:32:22.836Z,16.25
2022-09-16T02:34:28.358Z,14.18
2022-09-16T02:36:31.100Z,15.00
2022-09-16T02:38:37.063Z,18.38
2022-09-16T02:40:43.658Z,16.23
2022-09-16T02:42:45.334Z,17.40
2022-09-16T02:44:47.586Z,15.20
2022-09-16T02:46:57.802Z,13.23
2022-09-16T02:49:30.110Z,13.75
2022-09-16T02:51:36.354Z,11.38
2022-09-16T02:53:47.486Z,14.82
2022-09-16T02:55:54.308Z,10.50
2022-09-16T02:57:56.185Z,20.33
2022-09-16T02:59:57.931Z,15.05
2022-09-16T03:02:01.156Z,15.82
2022-09-16T03:04:03.525Z,12.32
2022-09-16T03:06:25.094Z,16.00
2022-09-16T03:08:26.978Z,15.93
2022-09-16T03:10:35.113Z,15.52
2022-09-16T03:12:53.995Z,14.98
2022-09-16T03:15:24.433Z,14.68
2022-09-16T03:17:38.099Z,14.43
2022-09-16T03:19:47.159Z,11.32
2022-09-16T03:22:07.553Z,9.50
2022-09-16T03:24:47.672Z,8.82
2022-09-16T03:27:00.775Z,13.00
2022-09-16T03:29:33.854Z,7.70
2022-09-16T03:32:11.346Z,8.73
2022-09-16T03:34:20.351Z,11.43
2022-09-16T03:36:30.604Z,10.30
2022-09-16T03:38:33.838Z,10.27
2022-09-16T03:40:35.577Z,11.95
2022-09-16T03:42:40.667Z,12.35
2022-09-16T03:44:42.985Z,10.40
2022-09-16T03:46:44.508Z,16.40
2022-09-16T03:48:46.002Z,18.05
2022-09-16T03:50:47.491Z,9.05
2022-09-16T03:52:49.021Z,10.30
2022-09-16T03:54:50.520Z,9.50
2022-09-16T03:56:52.043Z,12.57
2022-09-16T03:58:53.500Z,15.95
2022-09-16T04:00:55.016Z,11.63
2022-09-16T04:02:56.810Z,13.40
2022-09-16T04:04:58.398Z,8.93
2022-09-16T04:06:59.907Z,11.60
2022-09-16T04:09:07.040Z,8.18
2022-09-16T04:11:08.548Z,8.73
2022-09-16T04:13:10.084Z,10.48
2022-09-16T04:15:12.901Z,14.52
2022-09-16T04:17:14.416Z,9.55
2022-09-16T04:19:16.003Z,10.88
2022-09-16T04:21:18.145Z,9.15
2022-09-16T04:23:19.779Z,15.55
2022-09-16T04:25:21.309Z,8.77
2022-09-16T04:27:23.205Z,8.80
2022-09-16T04:29:24.753Z,8.80
2022-09-16T04:31:26.343Z,7.18
2022-09-16T04:33:31.291Z,10.32
2022-09-16T04:35:32.796Z,5.88
2022-09-16T04:37:34.414Z,8.90
2022-09-16T04:39:35.910Z,5.85
2022-09-16T04:41:37.408Z,8.40
2022-09-16T04:43:39.170Z,6.18
2022-09-16T04:45:40.653Z,8.57
2022-09-16T04:47:42.858Z,8.90
2022-09-16T04:49:44.396Z,11.52
2022-09-16T04:51:45.900Z,8.30
2022-09-16T04:53:47.553Z,7.35
2022-09-16T04:55:49.318Z,9.68
2022-09-16T04:57:50.938Z,9.80
2022-09-16T04:59:52.441Z,8.75
2022-09-16T05:01:54.004Z,5.40
2022-09-16T05:03:58.118Z,10.25
2022-09-16T05:06:11.309Z,7.53
2022-09-16T05:08:12.832Z,10.20
2022-09-16T05:10:14.417Z,5.90
2022-09-16T05:12:15.932Z,9.45
2022-09-16T05:14:18.490Z,6.75
2022-09-16T05:16:22.426Z,8.25
2022-09-16T05:18:24.012Z,6.30
2022-09-16T05:20:25.519Z,7.75
2022-09-16T05:22:27.038Z,4.95
2022-09-16T05:24:28.646Z,5.53
2022-09-16T05:26:31.642Z,10.50
2022-09-16T05:28:33.933Z,8.15
2022-09-16T05:30:35.467Z,5.28
2022-09-16T05:32:37.872Z,8.05
2022-09-16T05:34:39.364Z,7.50
2022-09-16T05:36:43.781Z,5.25
2022-09-16T05:39:04.612Z,4.10
2022-09-16T05:41:07.761Z,7.93
2022-09-16T05:43:09.303Z,8.77
2022-09-16T05:45:10.921Z,5.63
2022-09-16T05:47:12.461Z,6.78
2022-09-16T05:49:13.975Z,6.57
2022-09-16T05:51:20.570Z,4.40
2022-09-16T05:53:23.165Z,7.43
2022-09-16T05:55:26.381Z,12.52
2022-09-16T05:57:27.883Z,5.82
2022-09-16T05:59:29.371Z,8.98
2022-09-16T06:01:33.333Z,6.82
2022-09-16T06:03:36.133Z,8.05
2022-09-16T06:05:37.627Z,7.70
2022-09-16T06:07:39.129Z,7.10
2022-09-16T06:09:41.760Z,5.25
2022-09-16T06:11:45.691Z,6.82
2022-09-16T06:13:47.441Z,11.65
2022-09-16T06:15:51.390Z,10.57
2022-09-16T06:17:52.927Z,10.55
2022-09-16T06:19:54.825Z,10.27
2022-09-16T06:21:56.390Z,12.85
2022-09-16T06:23:57.912Z,7.05
2022-09-16T06:26:01.337Z,5.68
2022-09-16T06:28:03.691Z,6.20
2022-09-16T06:30:05.697Z,9.77
2022-09-16T06:32:07.228Z,6.60
2022-09-16T06:34:14.207Z,5.75
2022-09-16T06:36:20.948Z,7.78
2022-09-16T06:38:22.788Z,9.63
2022-09-16T06:40:24.443Z,7.28
2022-09-16T06:42:26.056Z,3.55
2022-09-16T06:44:27.568Z,7.55
2022-09-16T06:46:29.886Z,5.90
2022-09-16T06:48:34.298Z,8.77
2022-09-16T06:50:35.903Z,3.65
2022-09-16T06:52:37.487Z,7.57
2022-09-16T06:54:38.990Z,5.53
2022-09-16T06:56:41.601Z,6.53
2022-09-16T06:58:44.985Z,5.20
2022-09-16T07:00:46.520Z,7.55
2022-09-16T07:02:48.107Z,3.30
2022-09-16T07:04:49.904Z,4.40
2022-09-16T07:07:08.601Z,4.13
2022-09-16T07:09:11.272Z,7.90
2022-09-16T07:11:18.217Z,118.63
2022-09-16T07:13:19.755Z,11.50
2022-09-16T07:15:21.289Z,13.52
2022-09-16T07:17:27.155Z,10.05
2022-09-16T07:19:28.676Z,20.33
2022-09-16T07:21:31.087Z,14.07
2022-09-16T07:23:34.790Z,20.20
2022-09-16T07:25:36.341Z,6.85
2022-09-16T07:27:37.905Z,33.00
2022-09-16T07:29:39.395Z,27.08
2022-09-16T07:31:41.501Z,81.68
2022-09-16T07:33:45.742Z,16.10
2022-09-16T07:35:47.229Z,23.08
2022-09-16T07:37:48.811Z,7.70
2022-09-16T07:39:50.604Z,9.85
2022-09-16T07:41:52.169Z,5.60
2022-09-16T07:43:54.846Z,5.03
2022-09-16T07:45:57.540Z,4.40
2022-09-16T07:47:59.130Z,5.72
2022-09-16T07:50:00.723Z,5.47
2022-09-16T07:52:02.286Z,8.52
2022-09-16T07:54:06.580Z,5.63
2022-09-16T07:56:16.895Z,4.90
2022-09-16T07:58:18.559Z,4.90
2022-09-16T08:00:20.888Z,4.18
2022-09-16T08:02:22.505Z,5.40
2022-09-16T08:04:24.292Z,6.25
2022-09-16T08:06:27.986Z,4.75
2022-09-16T08:08:31.126Z,4.60
2022-09-16T08:10:32.738Z,8.80
2022-09-16T08:12:35.449Z,4.45
2022-09-16T08:14:37.392Z,3.22
2022-09-16T08:16:39.099Z,5.72
2022-09-16T08:18:41.100Z,6.85
2022-09-16T08:20:42.619Z,6.18
2022-09-16T08:22:44.113Z,6.63
2022-09-16T08:24:45.702Z,3.35
2022-09-16T08:26:47.302Z,5.75
2022-09-16T08:31:11.166Z,6.88
2022-09-16T08:33:12.779Z,4.55
2022-09-16T08:35:14.562Z,6.75
2022-09-16T08:37:16.072Z,6.35
2022-09-16T08:39:17.628Z,4.78
2022-09-16T08:41:37.980Z,4.90
2022-09-16T08:43:51.610Z,3.88
2022-09-16T08:46:09.639Z,3.58
2022-09-16T08:48:47.987Z,3.05
2022-09-16T08:50:49.815Z,2.20
2022-09-16T08:52:52.134Z,5.90
2022-09-16T08:54:57.177Z,6.15
2022-09-16T08:57:01.827Z,2.85
2022-09-16T08:59:10.277Z,6.15
2022-09-16T09:01:18.959Z,5.47
2022-09-16T09:03:42.653Z,4.13
2022-09-16T09:05:52.302Z,3.80
2022-09-16T09:08:00.846Z,4.35
2022-09-16T09:10:03.997Z,3.20
2022-09-16T09:12:20.817Z,4.03
2022-09-16T09:14:41.804Z,3.42
2022-09-16T09:16:46.147Z,5.78
2022-09-16T09:19:03.978Z,3.03
2022-09-16T09:21:28.626Z,5.80
2022-09-16T09:23:52.679Z,2.17
2022-09-16T09:26:18.819Z,5.38
2022-09-16T09:28:51.421Z,4.57
2022-09-16T09:31:31.244Z,3.75
2022-09-16T09:36:02.924Z,2.80
2022-09-16T09:38:14.925Z,2.25
2022-09-16T09:40:20.638Z,2.13
2022-09-16T09:42:26.202Z,3.13
2022-09-16T09:44:30.647Z,4.55
2022-09-16T09:46:41.663Z,2.05
2022-09-16T09:48:56.406Z,5.07
2022-09-16T09:51:01.977Z,2.42
2022-09-16T09:53:18.275Z,4.65
2022-09-16T09:55:22.593Z,4.20
2022-09-16T09:57:26.850Z,8.20
2022-09-16T09:59:43.931Z,14.38
2022-09-16T10:01:45.649Z,9.88
2022-09-16T10:03:48.958Z,4.75
2022-09-16T10:05:50.517Z,5.05
2022-09-16T10:07:55.398Z,3.63
2022-09-16T10:09:59.539Z,5.30
2022-09-16T10:12:01.994Z,5.85
2022-09-16T10:14:05.800Z,4.38
2022-09-16T10:16:14.985Z,4.10
2022-09-16T10:18:31.196Z,2.80
2022-09-16T10:20:38.460Z,4.57
2022-09-16T10:22:39.965Z,7.60
2022-09-16T10:24:43.195Z,2.95
2022-09-16T10:26:44.696Z,5.07
2022-09-16T10:29:01.129Z,4.18
2022-09-16T10:31:02.878Z,5.82
2022-09-16T10:33:14.074Z,2.75
2022-09-16T10:35:25.307Z,3.35
2022-09-16T10:37:28.153Z,3.30
2022-09-16T10:39:30.340Z,2.55
2022-09-16T10:41:41.997Z,1.92
2022-09-16T10:43:54.839Z,4.20
2022-09-16T10:45:56.480Z,2.03
2022-09-16T10:48:03.427Z,4.32
2022-09-16T10:50:08.529Z,3.67
2022-09-16T10:52:18.301Z,2.83
2022-09-16T10:54:25.643Z,4.95
2022-09-16T10:56:29.787Z,2.65
2022-09-16T10:58:31.312Z,3.38
2022-09-16T11:00:44.911Z,1.98
2022-09-16T11:03:10.609Z,2.03
2022-09-16T11:05:39.812Z,4.30
2022-09-16T11:07:46.988Z,2.65
2022-09-16T11:10:23.340Z,3.28
2022-09-16T11:12:55.334Z,3.65
2022-09-16T11:15:14.422Z,5.50
2022-09-16T11:17:53.385Z,5.38
2022-09-16T11:20:13.557Z,4.57
2022-09-16T11:22:32.381Z,3.10
2022-09-16T11:25:03.579Z,4.93
2022-09-16T11:27:49.443Z,7.20
2022-09-16T11:29:59.624Z,4.47
2022-09-16T11:32:14.225Z,4.65
2022-09-16T11:34:35.652Z,2.90
2022-09-16T11:36:39.800Z,3.63
2022-09-16T11:39:03.344Z,5.22
2022-09-16T11:41:34.455Z,8.02
2022-09-16T11:43:54.569Z,2.95
2022-09-16T11:46:28.198Z,2.95
2022-09-16T11:48:39.229Z,2.30
2022-09-16T11:51:10.097Z,3.53
2022-09-16T11:53:39.042Z,2.95
2022-09-16T11:55:56.997Z,15.30
2022-09-16T11:58:08.472Z,6.20
2022-09-16T12:00:10.755Z,7.03
2022-09-16T12:02:24.461Z,30.60
2022-09-16T12:04:38.406Z,4.88
2022-09-16T12:06:56.669Z,6.00
2022-09-16T12:09:09.123Z,2.40
2022-09-16T12:11:22.615Z,3.28
2022-09-16T12:13:28.822Z,4.82
2022-09-16T12:15:41.055Z,21.65
2022-09-16T12:17:51.269Z,3.97
2022-09-16T12:20:01.106Z,5.00
2022-09-16T12:22:17.242Z,5.28
2022-09-16T12:24:35.053Z,3.25
2022-09-16T12:26:40.837Z,2.25
2022-09-16T12:29:21.496Z,1.63
2022-09-16T12:31:40.287Z,8.95
2022-09-16T12:34:03.097Z,3.58
2022-09-16T12:36:11.267Z,2.42
2022-09-16T12:38:17.607Z,15.45
2022-09-16T12:40:25.319Z,45.72
2022-09-16T12:42:46.516Z,50.92
2022-09-16T12:45:23.740Z,18.27
2022-09-16T12:47:51.255Z,6.80
2022-09-16T12:50:20.677Z,9.93
2022-09-16T12:52:41.202Z,101.13
2022-09-16T12:55:08.664Z,43.20
2022-09-16T12:57:10.524Z,17.83
2022-09-16T12:59:26.186Z,7.45
2022-09-16T13:01:44.601Z,4.50
2022-09-16T13:03:50.058Z,6.18
2022-09-16T13:05:52.969Z,4.25
2022-09-16T13:08:19.100Z,3.63
2022-09-16T13:10:40.519Z,2.88
2022-09-16T13:12:50.169Z,5.30
2022-09-16T13:14:54.100Z,2.42
2022-09-16T13:16:57.907Z,3.60
2022-09-16T13:19:24.037Z,8.30
2022-09-16T13:21:28.659Z,3.13
2022-09-16T13:23:34.072Z,3.72
2022-09-16T13:25:51.736Z,21.33
2022-09-16T13:28:02.290Z,5.30
2022-09-16T13:30:11.343Z,12.50
2022-09-16T13:32:38.739Z,9.73
2022-09-16T13:34:40.275Z,3.55
2022-09-16T13:36:41.874Z,5.65
2022-09-16T13:38:53.647Z,2.85
2022-09-16T13:41:02.087Z,2.80
2022-09-16T13:43:09.708Z,2.63
2022-09-16T13:45:32.733Z,3.97
2022-09-16T13:47:40.315Z,3.30
2022-09-16T13:50:01.047Z,2.60
2022-09-16T13:52:11.363Z,4.10
2022-09-16T13:54:22.828Z,2.30
2022-09-16T13:56:33.278Z,3.10
2022-09-16T13:58:43.890Z,2.78
2022-09-16T14:01:07.595Z,3.50
2022-09-16T14:03:18.754Z,2.22
2022-09-16T14:05:58.250Z,1.52
2022-09-16T14:08:18.652Z,4.47
2022-09-16T14:10:50.515Z,3.13
2022-09-16T14:13:00.112Z,2.63
2022-09-16T14:15:01.789Z,4.32
2022-09-16T14:17:05.027Z,3.10
2022-09-16T14:19:14.209Z,1.92
2022-09-16T14:21:21.663Z,5.72
2022-09-16T14:23:25.236Z,5.35
2022-09-16T14:25:35.837Z,2.00
2022-09-16T14:27:39.473Z,3.08
2022-09-16T14:29:54.084Z,3.75
2022-09-16T14:31:56.970Z,2.83
2022-09-16T14:34:04.538Z,3.55
2022-09-16T14:36:12.412Z,3.90
2022-09-16T14:40:39.940Z,3.42
2022-09-16T14:43:02.017Z,4.88
2022-09-16T14:45:05.630Z,3.08
2022-09-16T14:47:09.698Z,2.05
2022-09-16T14:49:16.413Z,3.40
2022-09-16T14:51:23.936Z,3.03
2022-09-16T14:53:35.908Z,2.00
2022-09-16T14:55:40.275Z,8.73
2022-09-16T14:57:41.887Z,7.18
2022-09-16T14:59:44.060Z,18.15
2022-09-16T15:01:45.685Z,6.90
2022-09-16T15:04:16.111Z,5.53
2022-09-16T15:06:25.619Z,11.73
2022-09-16T15:08:31.866Z,3.28
2022-09-16T15:10:49.922Z,2.42
2022-09-16T15:14:57.529Z,2.65
2022-09-16T15:17:02.497Z,4.10
2022-09-16T15:19:05.740Z,3.90
2022-09-16T15:21:10.616Z,5.43
2022-09-16T15:23:21.234Z,2.58
2022-09-16T15:25:25.441Z,3.65
2022-09-16T15:27:29.260Z,3.88
2022-09-16T15:29:34.014Z,3.35
2022-09-16T15:31:40.776Z,2.75
2022-09-16T15:33:42.671Z,6.22
2022-09-16T15:35:49.352Z,3.90
2022-09-16T15:37:52.217Z,4.22
2022-09-16T15:39:53.776Z,3.30
2022-09-16T15:42:17.516Z,5.10
2022-09-16T15:44:25.754Z,3.78
2022-09-16T15:46:27.445Z,5.28
2022-09-16T15:48:32.746Z,2.60
2022-09-16T15:50:44.700Z,2.72
2022-09-16T15:52:58.785Z,2.88
2022-09-16T15:55:03.050Z,7.03
2022-09-16T15:57:30.963Z,5.38
2022-09-16T15:59:36.492Z,4.68
2022-09-16T16:01:43.744Z,5.68
2022-09-16T16:03:45.267Z,4.63
2022-09-16T16:05:54.171Z,5.70
2022-09-16T16:08:08.947Z,10.18
2022-09-16T16:10:32.029Z,6.03
2022-09-16T16:12:33.528Z,8.90
2022-09-16T16:14:36.083Z,10.88
2022-09-16T16:16:55.245Z,8.57
2022-09-16T16:18:59.205Z,8.90
2022-09-16T16:21:08.515Z,5.22
2022-09-16T16:23:12.965Z,6.63
2022-09-16T16:25:14.886Z,6.38
2022-09-16T16:27:16.740Z,9.63
2022-09-16T16:29:18.403Z,32.00
2022-09-16T16:31:20.182Z,31.45
2022-09-16T16:33:21.809Z,21.08
2022-09-16T16:35:23.307Z,17.27
2022-09-16T16:37:45.570Z,20.98
2022-09-16T16:39:47.335Z,14.15
2022-09-16T16:41:48.933Z,20.95
2022-09-16T16:43:51.120Z,32.97
2022-09-16T16:45:59.020Z,33.72
2022-09-16T16:48:00.643Z,45.40
2022-09-16T16:50:02.208Z,34.83
2022-09-16T16:52:05.259Z,38.28
2022-09-16T16:54:06.951Z,53.67
2022-09-16T16:56:14.816Z,64.65
2022-09-16T16:58:16.850Z,59.22
2022-09-16T17:00:18.890Z,38.50
2022-09-16T17:02:20.535Z,41.97
2022-09-16T17:04:22.560Z,49.45
2022-09-16T17:06:24.090Z,28.23
2022-09-16T17:08:25.567Z,32.85
2022-09-16T17:10:27.061Z,33.80
2022-09-16T17:12:28.578Z,47.13
2022-09-16T17:14:32.570Z,35.65
2022-09-16T17:16:34.556Z,30.98
2022-09-16T17:18:40.349Z,21.38
2022-09-16T17:20:42.045Z,15.65
2022-09-16T17:22:44.405Z,16.45
2022-09-16T17:24:45.932Z,22.60
2022-09-16T17:26:49.790Z,21.65
2022-09-16T17:28:52.431Z,23.98
2022-09-16T17:30:54.089Z,51.53
2022-09-16T17:32:55.635Z,31.27
2022-09-16T17:34:57.135Z,27.55
2022-09-16T17:36:58.759Z,19.35
2022-09-16T17:39:08.398Z,18.52
2022-09-16T17:41:12.284Z,18.30
2022-09-16T17:43:13.798Z,29.33
2022-09-16T17:45:15.337Z,16.70
2022-09-16T17:47:16.838Z,11.40
2022-09-16T17:49:22.664Z,16.65
2022-09-16T17:51:24.389Z,16.08
2022-09-16T17:53:26.214Z,10.57
2022-09-16T17:55:27.694Z,7.05
2022-09-16T17:57:33.040Z,8.77
2022-09-16T17:59:34.897Z,8.55
2022-09-16T18:01:36.475Z,11.25
2022-09-16T18:03:38.845Z,9.88
2022-09-16T18:05:40.527Z,8.35
2022-09-16T18:07:45.815Z,17.58
2022-09-16T18:09:47.302Z,19.20
2022-09-16T18:11:49.153Z,13.70
2022-09-16T18:13:55.692Z,13.20
2022-09-16T18:16:03.125Z,13.85
2022-09-16T18:18:04.658Z,14.35
2022-09-16T18:20:07.341Z,15.43
2022-09-16T18:22:09.083Z,15.07
2022-09-16T18:24:13.068Z,21.42
2022-09-16T18:26:14.899Z,106.80
2022-09-16T18:28:16.934Z,38.20
2022-09-16T18:30:18.466Z,12.52
2022-09-16T18:32:19.979Z,43.60
2022-09-16T18:34:21.593Z,32.35
2022-09-16T18:36:25.532Z,43.33
2022-09-16T18:38:27.542Z,44.30
2022-09-16T18:40:29.167Z,50.15
2022-09-16T18:42:30.698Z,29.38
2022-09-16T18:44:32.399Z,20.95
2022-09-16T18:46:36.235Z,23.60
2022-09-16T18:48:38.025Z,36.67
2022-09-16T18:50:39.512Z,30.98
2022-09-16T18:52:41.133Z,23.80
2022-09-16T18:54:45.487Z,25.83
2022-09-16T18:56:47.030Z,96.95
2022-09-16T18:59:09.880Z,141.02
2022-09-16T19:01:27.434Z,199.75
2022-09-16T19:03:29.045Z,89.35
2022-09-16T19:05:30.603Z,69.85
2022-09-16T19:07:32.147Z,28.48
2022-09-16T19:09:36.224Z,25.52
2022-09-16T19:11:38.568Z,22.08
2022-09-16T19:13:40.129Z,18.05
2022-09-16T19:15:41.630Z,13.30
2022-09-16T19:17:43.262Z,7.10
2022-09-16T19:19:44.950Z,7.85
2022-09-16T19:21:47.369Z,8.57
2022-09-16T19:23:59.980Z,9.90
2022-09-16T19:26:03.171Z,11.68
2022-09-16T19:28:04.712Z,6.63
2022-09-16T19:30:06.847Z,9.30
2022-09-16T19:32:08.505Z,10.25
2022-09-16T19:34:11.092Z,12.63
2022-09-16T19:36:14.876Z,13.80
2022-09-16T19:38:16.378Z,17.25
2022-09-16T19:40:18.166Z,17.10
2022-09-16T19:42:19.719Z,12.00
2022-09-16T19:44:21.228Z,9.02
2022-09-16T19:46:23.960Z,7.63
2022-09-16T19:48:25.621Z,5.30
2022-09-16T19:50:27.152Z,6.22
2022-09-16T19:52:29.877Z,7.25
2022-09-16T19:54:31.467Z,12.07
2022-09-16T19:56:33.964Z,21.38
2022-09-16T19:58:36.639Z,39.45
2022-09-16T20:00:55.438Z,56.67
2022-09-16T20:02:58.049Z,59.47
2022-09-16T20:04:59.987Z,64.13
2022-09-16T20:07:01.497Z,37.90
2022-09-16T20:09:06.266Z,20.92
2022-09-16T20:11:10.572Z,20.52
2022-09-16T20:13:12.564Z,18.58
2022-09-16T20:15:14.079Z,15.18
2022-09-16T20:17:15.595Z,16.63
2022-09-16T20:19:18.848Z,13.35
2022-09-16T20:21:23.531Z,12.18
2022-09-16T20:23:25.057Z,9.70
2022-09-16T20:25:26.589Z,10.20
2022-09-16T20:27:28.147Z,5.78
2022-09-16T20:29:30.874Z,5.07
2022-09-16T20:31:35.315Z,9.80
2022-09-16T20:33:36.956Z,8.20
2022-09-16T20:35:38.448Z,10.32
2022-09-16T20:37:39.977Z,12.82
2022-09-16T20:39:41.784Z,35.50
2022-09-16T20:41:45.805Z,34.22
2022-09-16T20:43:47.979Z,26.48
2022-09-16T20:45:49.529Z,26.92
2022-09-16T20:47:52.122Z,21.45
2022-09-16T20:49:53.691Z,20.55
2022-09-16T20:51:55.227Z,30.73
2022-09-16T20:54:00.900Z,29.88
2022-09-16T20:56:08.349Z,22.33
2022-09-16T20:58:09.859Z,19.52
2022-09-16T21:00:11.908Z,12.73
2022-09-16T21:02:13.490Z,12.63
2022-09-16T21:04:17.956Z,9.05
2022-09-16T21:06:19.772Z,11.20
2022-09-16T21:08:21.588Z,19.88
2022-09-16T21:10:23.130Z,34.67
2022-09-16T21:12:24.696Z,23.02
2022-09-16T21:14:26.236Z,18.83
2022-09-16T21:16:29.529Z,13.60
2022-09-16T21:18:31.309Z,14.57
2022-09-16T21:20:32.807Z,12.25
2022-09-16T21:22:36.586Z,9.43
2022-09-16T21:24:38.514Z,7.30
2022-09-16T21:26:41.165Z,11.98
2022-09-16T21:28:43.733Z,11.35
2022-09-16T21:30:45.218Z,9.73
2022-09-16T21:32:46.748Z,10.82
2022-09-16T21:34:48.250Z,15.40
2022-09-16T21:36:50.713Z,11.77
2022-09-16T21:38:52.555Z,12.15
2022-09-16T21:40:56.133Z,11.20
2022-09-16T21:42:57.620Z,11.50
2022-09-16T21:45:00.002Z,12.63
2022-09-16T21:47:02.708Z,8.82
2022-09-16T21:49:04.258Z,9.57
2022-09-16T21:51:08.152Z,9.43
2022-09-16T21:53:10.784Z,9.85
2022-09-16T21:55:12.290Z,9.52
2022-09-16T21:57:14.543Z,10.35
2022-09-16T21:59:16.187Z,11.38
2022-09-16T22:01:20.738Z,11.55
2022-09-16T22:03:22.578Z,11.55
2022-09-16T22:05:24.151Z,11.80
2022-09-16T22:07:25.654Z,11.35
2022-09-16T22:09:27.190Z,8.02
2022-09-16T22:11:31.288Z,9.15
2022-09-16T22:13:33.721Z,8.68
2022-09-16T22:15:35.315Z,7.50
2022-09-16T22:17:36.934Z,8.43
2022-09-16T22:19:38.425Z,9.05
2022-09-16T22:21:42.933Z,7.78
2022-09-16T22:23:44.478Z,7.97
2022-09-16T22:25:46.396Z,9.35
2022-09-16T22:27:47.898Z,11.38
2022-09-16T22:29:49.420Z,7.85
2022-09-16T22:31:51.029Z,10.93
2022-09-16T22:33:53.855Z,5.85
2022-09-16T22:35:55.382Z,7.70
2022-09-16T22:37:56.917Z,6.70
2022-09-16T22:39:58.425Z,6.35
2022-09-16T22:42:00.014Z,6.00
2022-09-16T22:44:02.043Z,7.72
2022-09-16T22:46:24.831Z,4.57
2022-09-16T22:48:26.470Z,5.05
2022-09-16T22:50:27.978Z,3.72
2022-09-16T22:52:30.299Z,6.43
2022-09-16T22:54:31.820Z,5.35
2022-09-16T22:56:33.893Z,6.40
2022-09-16T22:58:35.523Z,4.72
2022-09-16T23:00:40.382Z,6.05
2022-09-16T23:02:42.245Z,4.93
2022-09-16T23:04:43.741Z,5.03
2022-09-16T23:06:45.294Z,8.82
2022-09-16T23:08:47.149Z,7.22
2022-09-16T23:10:48.728Z,9.32
2022-09-16T23:12:51.453Z,7.18
2022-09-16T23:14:52.947Z,6.45
2022-09-16T23:16:54.823Z,7.97
2022-09-16T23:18:58.375Z,11.88
2022-09-16T23:21:01.551Z,7.32
2022-09-16T23:23:03.848Z,4.20
2022-09-16T23:25:05.778Z,3.78
2022-09-16T23:27:07.295Z,3.88
2022-09-16T23:29:10.652Z,4.60
2022-09-16T23:31:14.159Z,4.80
2022-09-16T23:33:15.700Z,3.78
2022-09-16T23:35:17.987Z,4.63
2022-09-16T23:37:19.561Z,4.38
2022-09-16T23:39:21.406Z,4.63
2022-09-16T23:41:26.662Z,3.40
2022-09-16T23:43:28.341Z,6.90
2022-09-16T23:45:29.885Z,6.25
2022-09-16T23:47:31.522Z,9.90
2022-09-16T23:49:33.091Z,4.82
2022-09-16T23:51:34.628Z,6.53
2022-09-16T23:53:36.898Z,7.78
2022-09-16T23:55:42.626Z,5.93
2022-09-16T23:57:44.684Z,5.55
2022-09-16T23:59:46.243Z,4.93
